createdAt,value
2023-03-22T00:03:37.405Z,178.95
2023-03-22T00:08:43.290Z,181.33
2023-03-22T00:13:49.704Z,165.70
2023-03-22T00:19:01.713Z,172.75
2023-03-22T00:24:07.091Z,151.85
2023-03-22T00:29:12.138Z,158.07
2023-03-22T00:34:20.233Z,147.82
2023-03-22T00:39:26.378Z,151.27
2023-03-22T00:44:32.121Z,156.03
2023-03-22T00:49:39.063Z,146.15
2023-03-22T00:54:46.003Z,157.65
2023-03-22T00:59:56.042Z,154.60
2023-03-22T01:05:02.094Z,152.00
2023-03-22T01:10:09.628Z,162.55
2023-03-22T01:15:17.903Z,201.80
2023-03-22T01:20:24.163Z,150.35
2023-03-22T01:25:30.532Z,158.70
2023-03-22T01:30:36.768Z,157.25
2023-03-22T01:35:46.675Z,176.55
2023-03-22T01:40:53.571Z,172.68
2023-03-22T01:46:05.203Z,152.98
2023-03-22T01:51:13.700Z,147.88
2023-03-22T01:56:43.206Z,163.45
2023-03-22T02:01:58.626Z,166.43
2023-03-22T02:07:11.557Z,163.23
2023-03-22T02:44:42.688Z,151.23
2023-03-22T02:50:03.057Z,177.75
2023-03-22T02:55:26.888Z,170.25
2023-03-22T03:00:41.187Z,143.88
2023-03-22T03:05:58.963Z,141.20
2023-03-22T03:11:05.659Z,149.90
2023-03-22T03:16:18.641Z,128.60
2023-03-22T03:21:31.605Z,146.07
2023-03-22T03:27:06.348Z,150.82
2023-03-22T03:32:43.347Z,141.20
2023-03-22T03:37:54.110Z,149.73
2023-03-22T03:43:02.777Z,121.15
2023-03-22T03:48:21.089Z,138.43
2023-03-22T03:53:37.082Z,134.25
2023-03-22T04:03:56.818Z,138.63
2023-03-22T04:09:21.189Z,127.45
2023-03-22T04:14:32.569Z,120.13
2023-03-22T04:19:47.082Z,137.05
2023-03-22T04:24:53.741Z,146.00
2023-03-22T04:30:02.371Z,106.78
2023-03-22T04:35:32.011Z,146.60
2023-03-22T04:40:41.206Z,140.35
2023-03-22T04:46:04.498Z,126.75
2023-03-22T04:52:37.718Z,123.50
2023-03-22T04:57:46.284Z,92.15
2023-03-22T05:03:00.050Z,111.63
2023-03-22T05:08:18.315Z,125.65
2023-03-22T05:14:16.340Z,117.10
2023-03-22T05:24:36.641Z,104.57
2023-03-22T05:29:46.475Z,114.82
2023-03-22T05:35:06.144Z,103.60
2023-03-22T05:40:18.266Z,109.45
2023-03-22T05:45:29.051Z,107.20
2023-03-22T05:51:01.682Z,110.30
2023-03-22T05:56:12.672Z,92.53
2023-03-22T06:01:59.597Z,87.07
2023-03-22T06:07:18.053Z,93.53
2023-03-22T06:12:34.899Z,82.50
2023-03-22T06:17:48.282Z,73.38
2023-03-22T06:23:02.390Z,94.28
2023-03-22T06:28:09.339Z,78.63
2023-03-22T06:33:43.059Z,86.57
2023-03-22T06:39:04.092Z,94.00
2023-03-22T06:44:10.239Z,88.05
2023-03-22T06:49:49.249Z,89.88
2023-03-22T06:55:13.770Z,62.03
2023-03-22T07:00:21.480Z,74.03
2023-03-22T07:05:33.708Z,71.97
2023-03-22T07:10:40.796Z,80.03
2023-03-22T07:15:47.338Z,68.50
2023-03-22T07:21:17.230Z,59.92
2023-03-22T07:26:33.012Z,77.13
2023-03-22T07:31:41.478Z,78.40
2023-03-22T07:36:59.885Z,66.05
2023-03-22T07:42:06.883Z,79.75
2023-03-22T07:47:40.793Z,90.07
2023-03-22T07:53:13.087Z,90.43
2023-03-22T07:58:19.535Z,92.32
2023-03-22T08:03:29.768Z,87.85
2023-03-22T08:08:43.646Z,101.95
2023-03-22T08:14:27.497Z,83.15
2023-03-22T08:19:49.544Z,85.50
2023-03-22T08:25:02.894Z,86.07
2023-03-22T08:30:13.691Z,81.55
2023-03-22T08:35:22.055Z,79.35
2023-03-22T08:40:29.863Z,84.15
2023-03-22T08:45:47.047Z,77.43
2023-03-22T08:50:55.364Z,74.22
2023-03-22T08:56:25.641Z,73.78
2023-03-22T09:01:46.046Z,82.95
2023-03-22T09:06:55.382Z,78.30
2023-03-22T09:12:10.016Z,83.10
2023-03-22T09:17:21.349Z,78.97
2023-03-22T09:22:29.178Z,73.13
2023-03-22T09:27:35.781Z,73.43
2023-03-22T09:32:42.143Z,78.35
2023-03-22T09:37:54.468Z,81.88
2023-03-22T09:43:04.988Z,76.80
2023-03-22T09:48:25.489Z,76.70
2023-03-22T09:53:36.739Z,77.07
2023-03-22T09:59:16.115Z,74.50
2023-03-22T10:04:54.233Z,73.97
2023-03-22T10:10:21.413Z,79.80
2023-03-22T10:15:33.157Z,80.43
2023-03-22T10:21:08.030Z,78.47
2023-03-22T10:26:30.778Z,79.72
2023-03-22T10:31:37.139Z,77.18
2023-03-22T10:36:44.358Z,75.55
2023-03-22T10:41:51.310Z,67.80
2023-03-22T10:47:01.546Z,76.57
2023-03-22T10:52:31.943Z,76.60
2023-03-22T10:57:41.812Z,90.25
2023-03-22T11:03:03.306Z,71.75
2023-03-22T11:08:16.340Z,76.30
2023-03-22T11:13:26.233Z,94.93
2023-03-22T11:18:37.354Z,73.15
2023-03-22T11:24:10.396Z,94.50
2023-03-22T11:35:28.397Z,81.38
2023-03-22T11:40:37.737Z,87.32
2023-03-22T11:45:45.839Z,76.38
2023-03-22T11:50:58.966Z,101.60
2023-03-22T11:56:09.009Z,78.30
2023-03-22T12:01:41.640Z,87.05
2023-03-22T12:06:48.376Z,83.18
2023-03-22T12:12:03.891Z,84.05
2023-03-22T12:17:42.607Z,85.55
2023-03-22T12:22:55.831Z,80.40
2023-03-22T12:28:11.332Z,83.10
2023-03-22T12:33:40.287Z,82.78
2023-03-22T12:39:00.563Z,79.07
2023-03-22T12:44:12.927Z,74.47
2023-03-22T12:49:29.532Z,73.68
2023-03-22T12:54:36.564Z,80.60
2023-03-22T12:59:47.842Z,88.95
2023-03-22T13:04:59.821Z,74.78
2023-03-22T13:16:53.499Z,74.53
2023-03-22T13:22:27.791Z,85.43
2023-03-22T13:55:16.326Z,82.68
2023-03-22T14:01:45.845Z,81.82
2023-03-22T14:07:42.126Z,80.07
2023-03-22T14:13:13.398Z,77.28
2023-03-22T14:18:38.479Z,77.18
